Time;durP1;ratioP1;P1;durP2;ratioP2;P2;SDS_P1;SDS_P2;PMS_P1;PMS_P2;Temp;Humidity;BMP_temperature;BMP_pressure;BME280_temperature;BME280_humidity;BME280_pressure;Samples;Min_cycle;Max_cycle;Signal;HPM_P1;HPM_P2
2023/09/15 00:00:06;;;;;;;15.65;10.80;;;;;;;-143.21;64.21;71570.53;5071454;28;20214;-82
2023/09/15 00:02:33;;;;;;;16.92;10.60;;;;;;;-143.21;64.28;71580.44;5071046;28;20205;-80
2023/09/15 00:05:00;;;;;;;14.05;11.30;;;;;;;-143.21;64.35;71588.38;5071054;28;20205;-80
2023/09/15 00:07:29;;;;;;;19.00;11.48;;;;;;;-143.21;64.61;71594.31;5070530;28;20600;-78
2023/09/15 00:09:57;;;;;;;15.85;11.32;;;;;;;-143.21;63.44;71580.44;5071206;28;20205;-79
2023/09/15 00:12:25;;;;;;;19.33;10.82;;;;;;;-143.21;63.09;71582.41;5070858;28;20211;-79
2023/09/15 00:14:52;;;;;;;14.20;10.88;;;;;;;-143.21;63.04;71590.34;5070715;28;20201;-80
2023/09/15 00:17:19;;;;;;;18.00;11.27;;;;;;;-143.21;63.22;71598.28;5071268;28;20198;-79
2023/09/15 00:19:46;;;;;;;16.27;11.73;;;;;;;-143.21;63.54;71604.22;5067982;28;20205;-80
2023/09/15 00:22:13;;;;;;;14.65;11.10;;;;;;;-143.21;63.67;71606.22;5067541;28;20204;-80
2023/09/15 00:24:41;;;;;;;17.27;11.10;;;;;;;-143.21;63.92;71608.19;5071366;28;20232;-80
2023/09/15 00:27:09;;;;;;;22.10;11.68;;;;;;;-143.21;63.85;71606.22;5071175;28;20210;-79
2023/09/15 00:29:36;;;;;;;17.55;11.57;;;;;;;-143.21;64.34;71620.09;5070956;28;20255;-79
2023/09/15 00:32:03;;;;;;;16.85;11.48;;;;;;;-143.21;64.30;71626.03;5070591;28;20626;-80
2023/09/15 00:34:30;;;;;;;17.90;11.95;;;;;;;-143.21;64.46;71622.06;5070644;28;20276;-80
2023/09/15 00:36:58;;;;;;;14.63;10.98;;;;;;;-143.21;64.33;71622.06;5070272;28;20288;-79
2023/09/15 00:39:24;;;;;;;16.95;11.60;;;;;;;-143.21;64.40;71624.06;5070639;28;20205;-79
2023/09/15 00:41:53;;;;;;;18.38;11.68;;;;;;;-143.21;64.49;71626.03;5069801;28;20665;-79
2023/09/15 00:44:19;;;;;;;17.85;11.88;;;;;;;-143.21;64.33;71626.03;5070114;28;20201;-79
2023/09/15 00:46:46;;;;;;;24.90;12.32;;;;;;;-143.21;64.70;71624.06;5070316;28;20197;-80
2023/09/15 00:49:14;;;;;;;16.58;12.20;;;;;;;-143.21;64.52;71630.00;5071193;28;20225;-81
2023/09/15 00:51:41;;;;;;;17.05;11.73;;;;;;;-143.21;64.33;71628.00;5070161;28;20665;-81
2023/09/15 00:54:08;;;;;;;13.32;11.80;;;;;;;-143.21;64.66;71614.13;5070461;28;20210;-80
2023/09/15 00:56:36;;;;;;;20.40;11.82;;;;;;;-143.21;64.08;71594.31;5069696;28;20220;-80
2023/09/15 00:59:05;;;;;;;19.42;11.65;;;;;;;-143.21;63.68;71600.25;5070112;28;20212;-81
2023/09/15 01:01:34;;;;;;;17.85;11.93;;;;;;;-143.21;63.92;71606.22;5070262;28;20248;-80
2023/09/15 01:04:01;;;;;;;16.25;11.80;;;;;;;-143.21;63.91;71618.09;5070125;28;20205;-80
2023/09/15 01:06:28;;;;;;;18.38;11.43;;;;;;;-143.21;64.08;71633.97;5070076;28;20712;-82
2023/09/15 01:08:56;;;;;;;17.58;11.63;;;;;;;-143.21;64.41;71643.88;5070740;28;20229;-81
2023/09/15 01:11:22;;;;;;;16.35;12.18;;;;;;;-143.21;64.74;71661.72;5070231;28;20251;-80
2023/09/15 01:13:50;;;;;;;19.30;12.55;;;;;;;-143.21;64.91;71667.66;5070239;28;20194;-80
2023/09/15 01:16:24;;;;;;;17.98;12.02;;;;;;;-143.21;64.84;71667.66;5070443;28;20205;-81
2023/09/15 01:18:56;;;;;;;15.80;11.82;;;;;;;-143.21;65.09;71665.69;5067786;28;20577;-80
2023/09/15 01:22:12;;;;;;;15.18;11.93;;;;;;;-143.21;64.94;71661.72;5069677;28;20201;-81
2023/09/15 01:25:15;;;;;;;14.63;11.77;;;;;;;-143.21;65.19;71665.69;5069958;28;20213;-81
2023/09/15 01:27:54;;;;;;;16.17;11.65;;;;;;;-143.21;65.39;71671.63;5069883;28;20204;-81
2023/09/15 01:30:25;;;;;;;16.58;11.73;;;;;;;-143.21;65.58;71665.69;5066943;28;20220;-81
2023/09/15 01:32:56;;;;;;;16.75;11.88;;;;;;;-143.21;65.31;71649.81;5069529;28;20201;-80
2023/09/15 01:35:25;;;;;;;14.18;12.43;;;;;;;-143.21;64.89;71630.00;5068934;28;20207;-80
2023/09/15 01:37:52;;;;;;;14.93;11.93;;;;;;;-143.21;64.57;71630.00;5065789;28;20673;-81
2023/09/15 01:40:18;;;;;;;22.30;12.27;;;;;;;-143.21;65.07;71647.84;5068344;28;20643;-80
2023/09/15 01:42:50;;;;;;;15.73;11.77;;;;;;;-143.21;65.04;71657.75;5067909;28;20592;-81
2023/09/15 01:45:33;;;;;;;19.85;12.25;;;;;;;-143.21;65.35;71671.63;5064823;28;20247;-80
2023/09/15 01:48:01;;;;;;;16.30;12.65;;;;;;;-143.21;65.56;71677.59;5066731;28;20201;-81
2023/09/15 01:50:58;;;;;;;17.30;12.43;;;;;;;-143.21;65.93;71683.53;5067626;28;20208;-81
2023/09/15 01:53:26;;;;;;;17.40;13.23;;;;;;;-143.21;65.88;71691.47;5065957;28;20199;-81
2023/09/15 01:56:03;;;;;;;16.60;12.60;;;;;;;-143.21;65.57;71693.44;5067873;28;20204;-80
2023/09/15 01:58:42;;;;;;;17.63;12.18;;;;;;;-143.21;65.65;71699.41;5068435;28;20635;-81
2023/09/15 02:01:35;;;;;;;19.27;12.35;;;;;;;-143.21;65.97;71705.34;5068699;28;20224;-82
2023/09/15 02:04:03;;;;;;;17.65;12.63;;;;;;;-143.21;65.93;71703.34;5067275;28;20623;-80
2023/09/15 02:06:36;;;;;;;20.60;12.70;;;;;;;-143.21;65.72;71705.34;5067344;28;20229;-81
2023/09/15 02:09:10;;;;;;;18.13;12.18;;;;;;;-143.21;65.88;71713.28;5068460;28;20217;-83
2023/09/15 02:11:41;;;;;;;17.40;12.30;;;;;;;-143.21;65.67;71705.34;5068259;28;20295;-81
2023/09/15 02:14:16;;;;;;;17.73;11.95;;;;;;;-143.21;65.67;71691.47;5067635;28;20224;-81
2023/09/15 02:16:44;;;;;;;18.48;12.05;;;;;;;-143.21;65.58;71689.47;5066604;28;20212;-80
2023/09/15 02:19:21;;;;;;;16.92;12.15;;;;;;;-143.21;65.72;71707.31;5068167;28;20683;-80
2023/09/15 02:21:48;;;;;;;18.70;11.93;;;;;;;-143.21;65.72;71709.31;5067089;28;20238;-80
2023/09/15 02:24:16;;;;;;;16.73;12.25;;;;;;;-143.21;65.98;71713.28;5067280;28;20209;-81
2023/09/15 02:26:43;;;;;;;19.55;12.30;;;;;;;-143.21;66.22;71725.16;5067295;28;20271;-80
2023/09/15 02:29:14;;;;;;;19.60;12.55;;;;;;;-143.21;66.17;71721.22;5067329;28;20905;-81
2023/09/15 02:32:00;;;;;;;17.08;12.30;;;;;;;-143.21;66.50;71737.06;5067430;28;20209;-81
2023/09/15 02:34:27;;;;;;;15.27;12.05;;;;;;;-143.21;66.90;71750.94;5065753;28;20684;-80
2023/09/15 02:36:54;;;;;;;15.52;12.25;;;;;;;-143.21;66.75;71746.97;5067298;28;20647;-79
2023/09/15 02:39:21;;;;;;;15.73;12.40;;;;;;;-143.21;66.74;71745.00;5066780;28;20201;-79
2023/09/15 02:41:55;;;;;;;16.92;12.75;;;;;;;-143.21;67.14;71750.94;5067591;28;20707;-79
2023/09/15 02:47:14;;;;;;;21.73;13.15;;;;;;;-143.21;66.90;71745.00;5066718;28;20209;-79
2023/09/15 02:50:00;;;;;;;19.08;12.90;;;;;;;-143.21;67.56;71766.81;5066990;28;20224;-80
2023/09/15 02:52:27;;;;;;;16.60;13.13;;;;;;;-143.21;68.35;71792.59;5065009;28;20220;-80
2023/09/15 02:54:56;;;;;;;17.65;12.43;;;;;;;-143.21;68.96;71794.56;5067291;28;20556;-79
2023/09/15 02:57:38;;;;;;;18.77;12.93;;;;;;;-143.21;68.24;71770.78;5067196;28;20213;-80
2023/09/15 03:00:08;;;;;;;20.90;12.95;;;;;;;-143.21;67.89;71760.88;5066897;28;20325;-80
2023/09/15 03:02:47;;;;;;;16.92;12.48;;;;;;;-143.21;68.13;71774.75;5066664;28;20209;-80
2023/09/15 03:05:21;;;;;;;19.50;13.20;;;;;;;-143.21;68.58;71792.59;5063421;28;20232;-80
2023/09/15 03:07:48;;;;;;;15.85;13.10;;;;;;;-143.21;68.82;71788.63;5067611;28;20267;-80
2023/09/15 03:10:23;;;;;;;17.98;12.73;;;;;;;-143.21;68.87;71804.47;5070539;28;20296;-80
2023/09/15 03:16:20;;;;;;;18.65;13.27;;;;;;;-143.21;69.17;71802.50;5067339;28;20212;-81
2023/09/15 03:18:50;;;;;;;18.50;13.20;;;;;;;-143.21;68.95;71798.53;5071424;28;20280;-81
2023/09/15 03:21:28;;;;;;;17.48;13.65;;;;;;;-143.21;69.08;71812.41;5067902;28;20201;-79
2023/09/15 03:23:55;;;;;;;19.33;13.13;;;;;;;-143.21;69.09;71812.41;5068011;28;20212;-79
2023/09/15 03:26:24;;;;;;;17.90;13.32;;;;;;;-143.21;69.08;71812.41;5066271;28;20208;-81
2023/09/15 03:28:54;;;;;;;21.48;13.02;;;;;;;-143.21;69.35;71814.41;5067563;28;20711;-81
2023/09/15 03:31:27;;;;;;;17.92;13.40;;;;;;;-143.21;69.01;71812.41;5069803;28;20212;-81
2023/09/15 03:33:58;;;;;;;21.20;14.55;;;;;;;-143.21;68.88;71818.38;5070144;28;20224;-86
2023/09/15 03:36:28;;;;;;;22.08;13.82;;;;;;;-143.21;69.16;71824.31;5071663;28;20594;-86
2023/09/15 03:38:56;;;;;;;22.05;14.15;;;;;;;-143.21;69.07;71822.34;5071904;28;20280;-88
2023/09/15 03:41:27;;;;;;;17.17;12.98;;;;;;;-143.21;68.23;71798.53;5070524;28;20209;-87
2023/09/15 03:43:55;;;;;;;16.08;11.77;;;;;;;-143.21;67.32;71792.59;5071094;28;20201;-88
2023/09/15 03:46:27;;;;;;;17.80;11.57;;;;;;;-143.21;66.88;71780.69;5071655;28;20201;-85
2023/09/15 03:48:53;;;;;;;14.73;11.55;;;;;;;-143.21;66.63;71804.47;5071396;28;20638;-87
2023/09/15 03:51:22;;;;;;;14.48;11.00;;;;;;;-143.21;66.53;71814.41;5071504;28;20259;-87
2023/09/15 03:53:49;;;;;;;15.85;11.23;;;;;;;-143.21;67.05;71824.31;5069292;28;20251;-89
2023/09/15 03:56:16;;;;;;;12.77;10.35;;;;;;;-143.21;66.94;71832.25;5071911;28;20275;-88
2023/09/15 03:58:43;;;;;;;14.18;11.10;;;;;;;-143.21;66.99;71840.19;5072223;28;20212;-87
2023/09/15 04:01:10;;;;;;;17.48;10.88;;;;;;;-143.21;66.93;71850.09;5071493;28;20205;-88
2023/09/15 04:03:39;;;;;;;13.30;10.90;;;;;;;-143.21;66.84;71856.03;5072236;28;20206;-89
2023/09/15 04:06:09;;;;;;;16.52;10.88;;;;;;;-143.21;67.46;71871.91;5071854;28;20236;-87
2023/09/15 04:08:45;;;;;;;12.73;10.27;;;;;;;-143.21;68.02;71881.81;5071909;28;20232;-88
2023/09/15 04:11:14;;;;;;;16.15;10.43;;;;;;;-143.21;67.85;71879.84;5068634;28;20201;-88
2023/09/15 04:13:41;;;;;;;15.38;10.70;;;;;;;-143.21;67.54;71875.88;5073039;28;20228;-87
2023/09/15 04:16:08;;;;;;;14.27;10.13;;;;;;;-143.21;67.29;71871.91;5071605;28;20206;-86
2023/09/15 04:18:37;;;;;;;18.42;10.20;;;;;;;-143.21;67.08;71865.97;5071585;28;20668;-87
2023/09/15 04:21:04;;;;;;;19.23;9.80;;;;;;;-143.21;67.09;71871.91;5072784;28;20200;-82
2023/09/15 04:23:34;;;;;;;18.98;11.25;;;;;;;-143.21;67.19;71873.88;5070910;28;20202;-83
2023/09/15 04:26:02;;;;;;;20.30;10.80;;;;;;;-143.21;66.85;71871.91;5070977;28;20208;-82
2023/09/15 04:28:29;;;;;;;14.65;9.50;;;;;;;-143.21;66.74;71873.88;5070829;28;20216;-82
2023/09/15 04:30:56;;;;;;;15.00;10.68;;;;;;;-143.21;67.39;71889.75;5070195;28;20225;-80
2023/09/15 04:33:23;;;;;;;14.88;10.00;;;;;;;-143.21;67.53;71889.75;5069597;28;20213;-81
2023/09/15 04:35:50;;;;;;;20.98;10.50;;;;;;;-143.21;67.50;71893.72;5068987;28;20294;-81
2023/09/15 04:38:17;;;;;;;18.02;11.00;;;;;;;-143.21;67.92;71905.63;5069049;28;20213;-80
2023/09/15 04:40:44;;;;;;;24.85;10.68;;;;;;;-143.21;67.87;71895.69;5069019;28;20197;-80
2023/09/15 04:43:16;;;;;;;15.32;11.38;;;;;;;-143.21;68.09;71899.66;5069204;28;20209;-80
2023/09/15 04:45:43;;;;;;;14.88;10.52;;;;;;;-143.21;68.13;71893.72;5068577;28;20210;-79
2023/09/15 04:48:13;;;;;;;20.10;10.90;;;;;;;-143.21;67.70;71891.72;5069236;28;20205;-82
2023/09/15 04:50:40;;;;;;;17.30;10.30;;;;;;;-143.21;67.88;71901.66;5068995;28;20314;-79
2023/09/15 04:53:09;;;;;;;16.23;10.68;;;;;;;-143.21;68.11;71907.59;5069180;28;20220;-81
2023/09/15 04:55:36;;;;;;;16.83;10.35;;;;;;;-143.21;67.63;71895.69;5069365;28;20213;-83
2023/09/15 04:58:03;;;;;;;18.85;10.40;;;;;;;-143.21;67.73;71891.72;5071416;28;20197;-81
2023/09/15 05:00:37;;;;;;;15.10;9.68;;;;;;;-143.21;67.67;71899.66;5069425;28;20202;-80
2023/09/15 05:03:08;;;;;;;19.95;10.38;;;;;;;-143.21;67.92;71899.66;5067312;28;20215;-81
2023/09/15 05:05:35;;;;;;;19.75;10.07;;;;;;;-143.21;67.96;71887.78;5067535;28;20241;-81
2023/09/15 05:08:02;;;;;;;16.08;9.95;;;;;;;-143.21;67.79;71879.84;5069242;28;20283;-80
2023/09/15 05:10:32;;;;;;;15.27;10.77;;;;;;;-143.21;67.95;71883.81;5068679;28;20233;-79
2023/09/15 05:13:00;;;;;;;19.67;11.00;;;;;;;-143.21;68.46;71893.72;5068720;28;20220;-81
2023/09/15 05:15:34;;;;;;;17.20;10.82;;;;;;;-143.21;69.00;71901.66;5067302;28;20205;-81
2023/09/15 05:18:03;;;;;;;22.50;11.30;;;;;;;-143.21;69.39;71907.59;5067537;28;20663;-79
2023/09/15 05:20:33;;;;;;;18.38;11.18;;;;;;;-143.21;69.81;71903.63;5067582;28;20660;-82
2023/09/15 05:22:59;;;;;;;16.15;11.05;;;;;;;-143.21;70.46;71911.56;5068176;28;20212;-81
2023/09/15 05:25:30;;;;;;;15.30;10.73;;;;;;;-143.21;70.63;71901.66;5067793;28;20212;-81
2023/09/15 05:28:00;;;;;;;17.08;11.43;;;;;;;-143.21;71.01;71901.66;5068169;28;20204;-81
2023/09/15 05:30:45;;;;;;;16.30;11.52;;;;;;;-143.21;71.82;71917.50;5066387;28;20229;-79
2023/09/15 05:33:17;;;;;;;15.10;11.50;;;;;;;-143.21;72.23;71919.50;5066604;28;20211;-81
2023/09/15 05:35:44;;;;;;;20.65;12.50;;;;;;;-143.21;72.28;71915.53;5068030;28;20220;-82
2023/09/15 05:38:10;;;;;;;20.00;12.80;;;;;;;-143.21;72.41;71907.59;5068068;28;20630;-82
2023/09/15 05:40:37;;;;;;;21.70;12.48;;;;;;;-143.21;72.78;71913.53;5068889;28;20240;-81
2023/09/15 05:43:04;;;;;;;16.38;12.57;;;;;;;-143.21;73.45;71911.56;5068101;28;20213;-81
2023/09/15 05:45:31;;;;;;;19.45;12.30;;;;;;;-143.21;73.51;71913.53;5068287;28;20212;-81
2023/09/15 05:47:58;;;;;;;21.25;13.63;;;;;;;-143.21;73.70;71903.63;5068088;28;20208;-76
2023/09/15 05:50:26;;;;;;;21.67;13.30;;;;;;;-143.21;73.57;71891.72;5067531;28;20248;-77
2023/09/15 05:52:53;;;;;;;17.70;12.63;;;;;;;-143.21;74.32;71901.66;5067992;28;20213;-77
2023/09/15 05:55:19;;;;;;;25.17;12.75;;;;;;;-143.21;74.01;71891.72;5068534;28;20216;-78
2023/09/15 05:57:46;;;;;;;18.23;12.02;;;;;;;-143.21;74.26;71871.91;5068075;28;20575;-77
2023/09/15 06:00:14;;;;;;;16.58;12.07;;;;;;;-143.21;72.20;71816.38;5067380;28;20198;-76
2023/09/15 06:02:43;;;;;;;19.30;11.15;;;;;;;-143.21;71.36;71788.63;5067967;28;20255;-81
2023/09/15 06:05:10;;;;;;;15.93;11.65;;;;;;;-143.21;71.08;71782.69;5067500;28;20204;-76
2023/09/15 06:07:38;;;;;;;20.15;12.30;;;;;;;-143.21;70.64;71780.69;5068123;28;20209;-77
2023/09/15 06:10:07;;;;;;;23.63;12.32;;;;;;;-143.21;70.45;71788.63;5067565;28;20240;-77
2023/09/15 06:12:33;;;;;;;15.15;11.20;;;;;;;-143.21;70.40;71788.63;5067469;28;20255;-78
2023/09/15 06:15:00;;;;;;;16.25;11.43;;;;;;;-143.21;70.52;71792.59;5067968;28;20206;-77
2023/09/15 06:17:28;;;;;;;19.50;11.18;;;;;;;-143.21;70.55;71790.59;5067996;28;20205;-79
2023/09/15 06:19:58;;;;;;;17.00;10.88;;;;;;;-143.21;70.39;71796.56;5068658;28;20221;-79
2023/09/15 06:22:25;;;;;;;23.75;11.27;;;;;;;-143.21;70.42;71802.50;5067716;28;20592;-79
2023/09/15 06:24:54;;;;;;;15.05;11.13;;;;;;;-143.21;70.55;71808.44;5067659;28;20205;-79
2023/09/15 06:27:20;;;;;;;16.15;10.00;;;;;;;-143.21;70.68;71798.53;5067520;28;20296;-80
2023/09/15 06:29:47;;;;;;;19.73;10.98;;;;;;;-143.21;70.32;71792.59;5066888;28;20324;-79
2023/09/15 06:32:14;;;;;;;16.08;11.35;;;;;;;-143.21;70.31;71800.53;5064056;28;20205;-79
2023/09/15 06:34:41;;;;;;;18.92;11.05;;;;;;;-143.21;69.89;71788.63;5067478;28;20213;-79
2023/09/15 06:37:09;;;;;;;15.52;10.98;;;;;;;-143.21;69.43;71786.63;5067486;28;20205;-78
2023/09/15 06:39:36;;;;;;;17.02;10.68;;;;;;;-143.21;69.84;71772.75;5068062;28;20213;-79
2023/09/15 06:42:05;;;;;;;13.65;10.70;;;;;;;-143.21;69.74;71762.84;5072046;28;20201;-79
2023/09/15 06:44:34;;;;;;;13.77;11.07;;;;;;;-143.21;68.88;71752.94;5072078;28;20568;-79
2023/09/15 06:47:01;;;;;;;17.17;10.65;;;;;;;-143.21;67.82;71756.91;5071955;28;20613;-79
2023/09/15 06:49:30;;;;;;;17.95;10.35;;;;;;;-143.21;67.92;71750.94;5072575;28;20201;-79
2023/09/15 06:51:57;;;;;;;15.00;10.43;;;;;;;-143.21;67.56;71737.06;5071588;28;20228;-80
2023/09/15 06:54:23;;;;;;;19.45;10.55;;;;;;;-143.21;67.76;71727.16;5072061;28;20197;-80
2023/09/15 06:56:51;;;;;;;16.77;9.77;;;;;;;-143.21;67.13;71707.31;5071583;28;20688;-79
2023/09/15 06:59:19;;;;;;;15.20;9.77;;;;;;;-143.21;66.76;71693.44;5072012;28;20223;-78
2023/09/15 07:01:46;;;;;;;13.82;10.63;;;;;;;-143.21;66.73;71689.47;5072169;28;20205;-78
2023/09/15 07:04:13;;;;;;;15.20;10.50;;;;;;;-143.21;66.19;71687.50;5071874;28;20205;-80
2023/09/15 07:06:40;;;;;;;14.60;9.43;;;;;;;-143.21;65.14;71679.56;5071082;28;20901;-79
2023/09/15 07:09:07;;;;;;;14.65;9.75;;;;;;;-143.21;64.91;71687.50;5071523;28;20221;-79
2023/09/15 07:11:34;;;;;;;14.82;9.63;;;;;;;-143.21;64.94;71689.47;5070846;28;20240;-80
2023/09/15 07:14:01;;;;;;;13.93;10.30;;;;;;;-143.21;64.47;71677.59;5070671;28;20204;-78
2023/09/15 07:16:29;;;;;;;13.57;9.65;;;;;;;-143.21;64.65;71665.69;5071001;28;20205;-79
2023/09/15 07:18:56;;;;;;;11.88;9.52;;;;;;;-143.21;64.42;71659.75;5071130;28;20240;-79
2023/09/15 07:21:23;;;;;;;13.07;9.82;;;;;;;-143.21;64.01;71661.72;5070887;28;20197;-79
2023/09/15 07:23:50;;;;;;;17.92;10.00;;;;;;;-143.21;64.37;71665.69;5070480;28;20209;-80
2023/09/15 07:26:17;;;;;;;12.13;9.35;;;;;;;-143.21;64.32;71657.75;5070315;28;20209;-79
2023/09/15 07:28:44;;;;;;;14.38;10.43;;;;;;;-143.21;64.04;71647.84;5071045;28;20197;-79
2023/09/15 07:31:11;;;;;;;11.52;9.52;;;;;;;-143.21;63.40;71655.78;5069109;28;20229;-80
2023/09/15 07:33:39;;;;;;;16.20;10.63;;;;;;;-143.21;63.42;71635.94;5069319;28;20758;-80
2023/09/15 07:36:06;;;;;;;19.08;11.25;;;;;;;-143.21;63.12;71618.09;5070192;28;20211;-79
2023/09/15 07:38:33;;;;;;;14.48;10.75;;;;;;;-143.21;62.99;71606.22;5070775;28;20201;-79
2023/09/15 07:41:00;;;;;;;16.88;9.70;;;;;;;-143.21;62.94;71602.25;5070959;28;20201;-79
2023/09/15 07:43:27;;;;;;;13.98;9.77;;;;;;;-143.21;61.77;71590.34;5070327;28;20213;-78
2023/09/15 07:45:53;;;;;;;14.65;9.63;;;;;;;-143.21;61.04;71568.53;5069918;28;20695;-78
2023/09/15 07:48:21;;;;;;;13.65;9.82;;;;;;;-143.21;61.09;71562.59;5070409;28;20225;-79
2023/09/15 07:50:50;;;;;;;19.45;10.43;;;;;;;-143.21;60.80;71546.72;5071086;28;20224;-78
2023/09/15 07:53:17;;;;;;;13.75;9.68;;;;;;;-143.21;60.58;71538.78;5069480;28;20684;-79
2023/09/15 07:55:44;;;;;;;14.73;9.30;;;;;;;-143.21;60.58;71530.88;5070071;28;20194;-77
2023/09/15 07:58:11;;;;;;;13.90;9.32;;;;;;;-143.21;59.93;71516.97;5069503;28;21107;-78
2023/09/15 08:00:38;;;;;;;11.50;8.75;;;;;;;-143.21;59.63;71507.06;5069723;28;20956;-79
2023/09/15 08:03:05;;;;;;;11.60;9.52;;;;;;;-143.21;58.30;71485.25;5070360;28;20223;-78
2023/09/15 08:05:32;;;;;;;15.82;10.57;;;;;;;-143.21;57.50;71477.34;5070273;28;20240;-77
2023/09/15 08:08:00;;;;;;;12.50;9.85;;;;;;;-143.21;57.91;71467.41;5070417;28;20224;-78
2023/09/15 08:10:28;;;;;;;13.48;10.23;;;;;;;-143.21;57.86;71457.50;5070100;28;20221;-78
2023/09/15 08:12:55;;;;;;;14.63;10.48;;;;;;;-143.21;58.08;71457.50;5070816;28;20221;-79
2023/09/15 08:15:23;;;;;;;15.52;9.82;;;;;;;-143.21;57.87;71459.47;5070277;28;20212;-79
2023/09/15 08:17:50;;;;;;;13.57;9.85;;;;;;;-143.21;57.89;71449.56;5070201;28;20203;-80
2023/09/15 08:20:17;;;;;;;16.77;10.77;;;;;;;-143.21;57.74;71437.69;5070957;28;20208;-78
2023/09/15 08:22:44;;;;;;;13.52;9.23;;;;;;;-143.21;57.52;71417.84;5070726;28;20201;-78
2023/09/15 08:25:12;;;;;;;13.80;9.77;;;;;;;-143.21;56.64;71402.00;5071193;28;20674;-78
2023/09/15 08:27:39;;;;;;;20.70;10.07;;;;;;;-143.21;55.78;71390.09;5070039;28;20220;-79
2023/09/15 08:30:08;;;;;;;16.02;9.25;;;;;;;-143.21;55.36;71384.16;5069935;28;20264;-79
2023/09/15 08:32:35;;;;;;;14.00;9.57;;;;;;;-143.21;55.40;71374.22;5069832;28;20231;-79
2023/09/15 08:35:03;;;;;;;14.25;9.90;;;;;;;-143.21;55.03;71366.31;5069813;28;20619;-79
2023/09/15 08:37:29;;;;;;;13.32;9.63;;;;;;;-143.21;54.45;71346.47;5070089;28;20228;-79
2023/09/15 08:39:56;;;;;;;15.65;9.27;;;;;;;-143.21;53.92;71330.63;5069600;28;20201;-79
2023/09/15 08:42:28;;;;;;;12.23;8.32;;;;;;;-143.21;53.98;71304.84;5069911;28;20204;-79
2023/09/15 08:44:56;;;;;;;11.00;8.25;;;;;;;-143.21;53.33;71281.06;5069467;28;20208;-79
2023/09/15 08:47:27;;;;;;;11.40;8.55;;;;;;;-143.21;52.71;71265.19;5069249;28;20201;-79
2023/09/15 08:49:54;;;;;;;14.55;9.35;;;;;;;-143.21;52.29;71243.38;5069218;28;20212;-78
2023/09/15 08:52:21;;;;;;;11.55;8.90;;;;;;;-143.21;51.46;71219.59;5069173;28;20221;-79
2023/09/15 08:54:51;;;;;;;12.93;9.68;;;;;;;-143.21;50.83;71217.59;5069897;28;20641;-79
2023/09/15 08:57:18;;;;;;;15.10;9.40;;;;;;;-143.21;51.18;71205.72;5066674;28;20224;-80
2023/09/15 08:59:47;;;;;;;10.80;8.35;;;;;;;-143.21;50.93;71183.91;5069801;28;20208;-77
2023/09/15 09:02:15;;;;;;;19.98;10.27;;;;;;;-143.21;50.28;71172.00;5069281;28;20190;-79
2023/09/15 09:04:42;;;;;;;15.40;10.32;;;;;;;-143.21;49.87;71160.13;5069449;28;20213;-79
2023/09/15 09:07:09;;;;;;;12.75;8.70;;;;;;;-143.21;49.59;71146.25;5068644;28;20237;-79
2023/09/15 09:09:37;;;;;;;14.98;9.65;;;;;;;-143.21;49.08;71134.34;5069268;28;20661;-79
2023/09/15 09:12:05;;;;;;;16.02;10.93;;;;;;;-143.21;47.71;71112.53;5069163;28;20244;-79
2023/09/15 09:14:31;;;;;;;12.73;9.48;;;;;;;-143.21;47.57;71104.59;5068706;28;20208;-79
2023/09/15 09:17:01;;;;;;;11.23;8.27;;;;;;;-143.21;47.90;71104.59;5068972;28;20212;-79
2023/09/15 09:19:36;;;;;;;11.65;8.80;;;;;;;-143.21;48.05;71098.66;5068472;28;20205;-79
2023/09/15 09:22:04;;;;;;;10.98;9.23;;;;;;;-143.21;47.34;71078.84;5068671;28;20196;-79
2023/09/15 09:24:31;;;;;;;13.10;9.23;;;;;;;-143.21;46.52;71068.94;5068048;28;20683;-79
2023/09/15 09:26:58;;;;;;;13.75;9.82;;;;;;;-143.21;46.34;71070.91;5068852;28;20208;-77
2023/09/15 09:29:27;;;;;;;13.52;8.95;;;;;;;-143.21;46.15;71061.00;5069332;28;20205;-78
2023/09/15 09:31:54;;;;;;;15.77;9.02;;;;;;;-143.21;45.98;71051.09;5068700;28;20279;-78
2023/09/15 09:34:23;;;;;;;12.77;9.63;;;;;;;-143.21;46.05;71027.28;5069283;28;20198;-79
2023/09/15 09:36:50;;;;;;;12.48;9.20;;;;;;;-143.21;45.61;71005.50;5069677;28;20209;-78
2023/09/15 09:39:17;;;;;;;13.68;9.05;;;;;;;-143.21;46.14;70991.63;5068790;28;20197;-78
2023/09/15 09:41:45;;;;;;;13.05;8.52;;;;;;;-143.21;44.86;70969.81;5068753;28;20280;-78
2023/09/15 09:44:12;;;;;;;11.05;8.60;;;;;;;-143.21;44.13;70977.72;5068408;28;20297;-78
2023/09/15 09:46:41;;;;;;;11.65;8.65;;;;;;;-143.21;43.69;70965.84;5068166;28;20205;-78
2023/09/15 09:49:08;;;;;;;12.52;9.32;;;;;;;-143.21;43.75;70932.13;5068911;28;20217;-79
2023/09/15 09:51:37;;;;;;;10.85;8.90;;;;;;;-143.21;43.99;70914.31;5068342;28;20240;-79
2023/09/15 09:54:07;;;;;;;11.27;8.25;;;;;;;-143.21;43.68;70882.59;5068529;28;20201;-78
2023/09/15 09:56:34;;;;;;;10.05;8.00;;;;;;;-143.21;43.01;70848.88;5067834;28;20628;-79
2023/09/15 09:59:10;;;;;;;14.30;8.57;;;;;;;-143.21;42.95;70813.19;5068244;28;20197;-78
2023/09/15 10:01:37;;;;;;;14.80;9.32;;;;;;;-143.21;42.62;70813.19;5068501;28;20208;-79
2023/09/15 10:04:05;;;;;;;12.05;8.70;;;;;;;-143.21;42.68;70805.28;5068795;28;20205;-79
2023/09/15 10:06:34;;;;;;;13.70;8.60;;;;;;;-143.21;42.35;70801.31;5068117;28;20236;-80
2023/09/15 10:09:05;;;;;;;9.50;7.90;;;;;;;-143.21;42.04;70775.53;5068252;28;20205;-78
2023/09/15 10:11:33;;;;;;;13.07;8.68;;;;;;;-143.21;41.47;70745.81;5068081;28;20314;-79
2023/09/15 10:14:02;;;;;;;12.98;8.93;;;;;;;-143.21;40.67;70724.00;5067791;28;20224;-79
2023/09/15 10:16:31;;;;;;;13.13;9.00;;;;;;;-143.21;40.41;70704.19;5067672;28;20259;-79
2023/09/15 10:18:59;;;;;;;13.45;8.80;;;;;;;-143.21;39.73;70700.22;5068391;28;20209;-79
2023/09/15 10:21:28;;;;;;;12.07;8.48;;;;;;;-143.21;39.40;70702.19;5067802;28;20201;-79
2023/09/15 10:24:05;;;;;;;12.70;8.38;;;;;;;-143.21;39.63;70706.16;5068552;28;20564;-79
2023/09/15 10:26:32;;;;;;;10.23;8.73;;;;;;;-143.21;40.01;70704.19;5068142;28;20212;-79
2023/09/15 10:29:01;;;;;;;10.38;7.65;;;;;;;-143.21;39.96;70702.19;5067964;28;20209;-78
2023/09/15 10:31:30;;;;;;;14.73;8.35;;;;;;;-143.21;39.96;70700.22;5067294;28;20252;-79
2023/09/15 10:34:00;;;;;;;11.13;8.70;;;;;;;-143.21;39.73;70704.19;5067969;28;20201;-78
2023/09/15 10:36:28;;;;;;;11.80;8.15;;;;;;;-143.21;39.07;70678.41;5066912;28;20207;-78
2023/09/15 10:38:57;;;;;;;11.43;8.25;;;;;;;-143.21;38.95;70656.59;5068036;28;20629;-79
2023/09/15 10:41:29;;;;;;;9.68;7.95;;;;;;;-143.21;38.34;70642.72;5067268;28;20197;-78
2023/09/15 10:43:57;;;;;;;12.35;8.32;;;;;;;-143.21;38.39;70638.75;5066094;28;20201;-78
2023/09/15 10:46:35;;;;;;;12.20;8.30;;;;;;;-143.21;37.97;70636.78;5066953;28;20205;-77
2023/09/15 10:49:14;;;;;;;15.10;9.18;;;;;;;-143.21;38.45;70676.44;5066907;28;20246;-78
2023/09/15 10:51:53;;;;;;;11.73;8.98;;;;;;;-143.21;38.60;70674.44;5067138;28;20251;-78
2023/09/15 10:54:20;;;;;;;12.48;8.98;;;;;;;-143.21;39.30;70698.22;5064561;28;20599;-77
2023/09/15 10:56:48;;;;;;;11.93;8.82;;;;;;;-143.21;39.10;70678.41;5067996;28;20672;-79
2023/09/15 10:59:16;;;;;;;14.68;8.98;;;;;;;-143.21;39.04;70666.50;5067545;28;20202;-79
2023/09/15 11:01:44;;;;;;;12.43;10.38;;;;;;;-143.21;38.81;70658.59;5066689;28;20209;-79
2023/09/15 11:04:12;;;;;;;9.65;8.07;;;;;;;-143.21;38.66;70624.88;5066856;28;20237;-79
2023/09/15 11:06:39;;;;;;;10.50;9.15;;;;;;;-143.21;37.77;70603.09;5066042;28;20774;-79
2023/09/15 11:09:07;;;;;;;14.65;9.48;;;;;;;-143.21;37.13;70561.47;5066731;28;20219;-78
2023/09/15 11:11:34;;;;;;;11.60;9.18;;;;;;;-143.21;37.01;70519.84;5065496;28;20229;-78
2023/09/15 11:14:02;;;;;;;12.88;10.30;;;;;;;-143.21;36.76;70505.97;5066629;28;20197;-78
2023/09/15 11:16:30;;;;;;;15.63;10.95;;;;;;;-143.21;36.06;70480.19;5067254;28;20200;-78
2023/09/15 11:19:02;;;;;;;18.45;10.73;;;;;;;-143.21;36.00;70438.56;5066493;28;20656;-79